Time;durP1;ratioP1;P1;durP2;ratioP2;P2;SDS_P1;SDS_P2;PMS_P1;PMS_P2;Temp;Humidity;BMP_temperature;BMP_pressure;BME280_temperature;BME280_humidity;BME280_pressure;Samples;Min_cycle;Max_cycle;Signal;HPM_P1;HPM_P2
2022/02/09 00:09:59;;;;;;;2.30;1.17;;;1.50;80.90;;;;;;5000459;28;20564;-73
2022/02/09 00:12:32;;;;;;;5.80;1.10;;;1.40;80.90;;;;;;5000359;28;20200;-74
2022/02/09 00:17:42;;;;;;;4.13;1.67;;;1.40;81.10;;;;;;5001293;28;20185;-73
2022/02/09 00:30:56;;;;;;;4.33;1.50;;;1.40;81.70;;;;;;5000260;28;20189;-73
2022/02/09 01:56:33;;;;;;;0.80;0.80;;;1.60;80.80;;;;;;5019308;28;20203;-73
2022/02/09 01:58:59;;;;;;;0.87;0.87;;;1.60;80.60;;;;;;5018859;28;20835;-73
2022/02/09 02:01:26;;;;;;;2.67;1.00;;;1.70;80.50;;;;;;5019328;28;20195;-73
2022/02/09 02:03:52;;;;;;;1.73;0.83;;;1.70;80.50;;;;;;5019938;28;20259;-73
2022/02/09 02:06:19;;;;;;;0.97;0.97;;;1.70;80.60;;;;;;5020407;28;20695;-72
2022/02/09 02:08:47;;;;;;;1.20;1.10;;;1.70;80.50;;;;;;5020193;28;20181;-72
2022/02/09 02:11:41;;;;;;;4.47;1.13;;;1.70;80.60;;;;;;5019335;28;20274;-73
2022/02/09 02:14:22;;;;;;;3.77;1.10;;;1.70;80.80;;;;;;5019576;28;20742;-73
2022/02/09 02:17:06;;;;;;;2.67;1.13;;;1.80;80.80;;;;;;5019377;28;20275;-72
2022/02/09 02:19:38;;;;;;;0.90;0.90;;;1.80;80.90;;;;;;5020387;28;20219;-72
2022/02/09 02:27:19;;;;;;;1.50;1.40;;;1.80;81.20;;;;;;5018923;28;20781;-73
2022/02/09 03:13:37;;;;;;;2.73;2.23;;;2.10;81.80;;;;;;4985652;28;20228;-72
2022/02/09 03:16:13;;;;;;;1.97;1.87;;;2.10;82.00;;;;;;4982731;28;20671;-72
2022/02/09 03:47:52;;;;;;;1.23;1.23;;;2.40;81.70;;;;;;4950132;28;20226;-73
2022/02/09 03:58:22;;;;;;;3.43;1.37;;;2.40;81.90;;;;;;5000920;28;20193;-72
2022/02/09 04:00:48;;;;;;;3.70;1.40;;;2.40;82.00;;;;;;4999057;28;21088;-73
2022/02/09 04:03:17;;;;;;;1.63;1.53;;;2.50;82.00;;;;;;5001903;28;20248;-71
2022/02/09 04:05:46;;;;;;;1.20;1.20;;;2.50;82.00;;;;;;5001046;28;20324;-71
2022/02/09 04:08:15;;;;;;;2.13;1.60;;;2.50;82.10;;;;;;5000515;28;20204;-73
2022/02/09 04:10:50;;;;;;;1.83;1.73;;;2.50;82.20;;;;;;5001266;28;20188;-72
2022/02/09 04:16:02;;;;;;;1.00;1.00;;;2.60;82.30;;;;;;5000141;28;20324;-73
2022/02/09 04:38:12;;;;;;;2.50;0.93;;;2.70;82.50;;;;;;5020522;28;20630;-72
2022/02/09 04:51:24;;;;;;;1.10;1.10;;;2.80;82.90;;;;;;4954559;28;20195;-72
2022/02/09 05:28:23;;;;;;;1.07;1.07;;;3.20;83.70;;;;;;5001096;28;20286;-73
2022/02/09 05:30:52;;;;;;;1.33;1.33;;;3.20;83.90;;;;;;5002442;28;20217;-74
2022/02/09 05:33:17;;;;;;;1.17;1.17;;;3.30;83.90;;;;;;5002888;28;21088;-74
2022/02/09 05:35:44;;;;;;;1.40;1.30;;;3.30;84.10;;;;;;5003494;28;20177;-73
2022/02/09 05:38:14;;;;;;;1.27;1.27;;;3.30;84.20;;;;;;5002366;28;20201;-74
2022/02/09 05:40:41;;;;;;;4.30;1.23;;;3.30;84.30;;;;;;5002647;28;20185;-74
2022/02/09 05:43:08;;;;;;;0.93;0.93;;;3.30;84.50;;;;;;5004092;28;20188;-73
2022/02/09 05:51:05;;;;;;;1.37;1.27;;;3.40;84.70;;;;;;5002156;28;20191;-75
2022/02/09 05:53:58;;;;;;;1.20;1.10;;;3.40;84.70;;;;;;5001046;28;20731;-74
2022/02/09 06:01:36;;;;;;;2.13;1.63;;;3.40;84.70;;;;;;5003804;28;20180;-74
2022/02/09 06:04:02;;;;;;;1.30;1.30;;;3.50;84.70;;;;;;5002895;28;20243;-73
2022/02/09 06:06:28;;;;;;;2.60;1.43;;;3.50;84.70;;;;;;5000648;28;20327;-75
2022/02/09 06:08:55;;;;;;;1.07;1.00;;;3.50;84.80;;;;;;5003278;28;20188;-76
2022/02/09 06:11:32;;;;;;;0.90;0.83;;;3.50;84.80;;;;;;5004144;28;21034;-75
2022/02/09 06:14:19;;;;;;;2.97;1.13;;;3.50;85.00;;;;;;5005391;28;20173;-74
2022/02/09 06:21:58;;;;;;;1.13;1.13;;;3.50;85.20;;;;;;5005727;28;20299;-73
2022/02/09 06:24:24;;;;;;;1.40;1.30;;;3.60;85.10;;;;;;5006375;28;20184;-73
2022/02/09 06:26:51;;;;;;;0.90;0.90;;;3.60;85.10;;;;;;5004683;28;20259;-72
2022/02/09 06:29:16;;;;;;;6.30;1.53;;;3.60;85.10;;;;;;5007465;28;20267;-73
2022/02/09 06:31:44;;;;;;;1.20;1.20;;;3.60;85.20;;;;;;5005619;28;20199;-73
2022/02/09 06:34:15;;;;;;;1.43;1.43;;;3.60;85.20;;;;;;5005798;28;20569;-76
2022/02/09 06:36:45;;;;;;;0.83;0.83;;;3.60;85.20;;;;;;5006547;28;20189;-74
2022/02/09 06:39:13;;;;;;;1.23;1.17;;;3.60;85.20;;;;;;5003678;28;20189;-74
2022/02/09 06:41:41;;;;;;;3.07;1.47;;;3.70;85.20;;;;;;5003539;28;20185;-76
2022/02/09 06:44:07;;;;;;;1.53;1.17;;;3.70;85.30;;;;;;5006484;28;20292;-74
2022/02/09 06:46:35;;;;;;;1.93;1.40;;;3.70;85.40;;;;;;5005922;28;20296;-75
2022/02/09 06:49:06;;;;;;;1.37;1.27;;;3.70;85.40;;;;;;5001210;28;20192;-74
2022/02/09 06:51:36;;;;;;;1.67;1.57;;;3.70;85.30;;;;;;5003146;28;20839;-74
2022/02/09 06:54:08;;;;;;;1.90;1.77;;;3.80;85.30;;;;;;5001105;28;20193;-75
2022/02/09 06:57:01;;;;;;;2.87;1.50;;;3.80;85.30;;;;;;5005066;28;20199;-72
2022/02/09 06:59:29;;;;;;;2.03;1.30;;;3.80;85.30;;;;;;5004868;28;20195;-74
2022/02/09 07:02:04;;;;;;;1.20;1.20;;;3.80;85.30;;;;;;5004777;28;20199;-77
2022/02/09 07:04:31;;;;;;;1.43;1.20;;;3.80;85.10;;;;;;5003660;28;20185;-75
2022/02/09 07:06:56;;;;;;;1.50;1.20;;;3.80;85.30;;;;;;5005397;28;20228;-74
2022/02/09 07:09:23;;;;;;;1.87;1.33;;;3.80;85.30;;;;;;5005316;28;20184;-74
2022/02/09 07:11:50;;;;;;;1.20;1.20;;;3.80;85.30;;;;;;5005837;28;20192;-74
2022/02/09 07:14:21;;;;;;;1.43;1.43;;;3.80;85.30;;;;;;5005149;28;20182;-75
2022/02/09 07:16:47;;;;;;;1.87;1.30;;;3.90;85.00;;;;;;5005645;28;20241;-76
2022/02/09 07:19:13;;;;;;;1.10;1.10;;;3.90;85.00;;;;;;5006159;28;20204;-74
2022/02/09 07:21:40;;;;;;;3.80;1.10;;;3.90;85.00;;;;;;5007006;28;20613;-73
2022/02/09 07:24:11;;;;;;;1.07;1.07;;;3.90;85.10;;;;;;5004931;28;20242;-73
2022/02/09 07:29:18;;;;;;;1.47;1.00;;;3.90;85.30;;;;;;5005382;28;20762;-74
2022/02/09 07:31:45;;;;;;;2.27;1.13;;;3.90;85.40;;;;;;5005761;28;20813;-75
2022/02/09 07:34:13;;;;;;;1.07;1.07;;;3.90;85.30;;;;;;5005874;28;20181;-74
2022/02/09 07:36:42;;;;;;;1.10;1.10;;;3.90;85.40;;;;;;5005676;28;20482;-73
2022/02/09 07:39:10;;;;;;;4.10;1.33;;;3.90;85.10;;;;;;5006260;28;20650;-73
2022/02/09 07:41:40;;;;;;;1.30;1.20;;;4.00;84.80;;;;;;5005095;28;20177;-74
2022/02/09 07:49:26;;;;;;;1.17;1.17;;;4.10;84.40;;;;;;5060683;28;20580;-74
2022/02/09 07:54:19;;;;;;;1.70;1.60;;;4.20;84.10;;;;;;5062526;28;20221;-74
2022/02/09 07:56:45;;;;;;;1.80;1.30;;;4.20;83.90;;;;;;5061152;28;20190;-74
2022/02/09 07:59:15;;;;;;;1.17;1.10;;;4.20;83.70;;;;;;5061933;28;20191;-73
2022/02/09 08:01:41;;;;;;;1.27;1.17;;;4.20;83.60;;;;;;5061557;28;20223;-73
2022/02/09 08:04:07;;;;;;;1.57;1.47;;;4.30;83.50;;;;;;5060947;28;20711;-74
2022/02/09 08:06:33;;;;;;;1.60;1.07;;;4.30;83.50;;;;;;5059717;28;20223;-74
2022/02/09 08:09:05;;;;;;;1.33;1.27;;;4.30;83.20;;;;;;5061077;28;20190;-74
2022/02/09 08:27:35;;;;;;;1.87;1.47;;;4.60;82.70;;;;;;5012261;28;20252;-75
2022/02/09 08:35:16;;;;;;;1.20;1.10;;;4.80;82.30;;;;;;5003838;28;20276;-74
2022/02/09 08:37:42;;;;;;;1.17;1.17;;;5.00;82.10;;;;;;5003901;28;20188;-74
2022/02/09 08:40:11;;;;;;;1.30;1.30;;;5.10;81.70;;;;;;5004120;28;20185;-74
2022/02/09 08:42:38;;;;;;;1.40;1.30;;;5.20;81.30;;;;;;5004067;28;20189;-74
2022/02/09 08:45:06;;;;;;;1.20;1.10;;;5.40;80.90;;;;;;5004094;28;20185;-74
2022/02/09 08:47:32;;;;;;;1.60;1.13;;;5.70;80.40;;;;;;5004107;28;20208;-74
2022/02/09 08:49:58;;;;;;;1.37;1.37;;;6.10;79.80;;;;;;5003389;28;20185;-75
2022/02/09 08:52:23;;;;;;;4.80;1.60;;;6.20;78.50;;;;;;5003188;28;20188;-75
2022/02/09 08:54:52;;;;;;;1.93;1.13;;;6.30;78.50;;;;;;5003194;28;20185;-75
2022/02/09 08:57:20;;;;;;;1.47;1.27;;;6.60;78.50;;;;;;5004064;28;20212;-75
2022/02/09 08:59:48;;;;;;;1.80;1.70;;;6.70;77.50;;;;;;5004398;28;20181;-74
2022/02/09 09:02:17;;;;;;;1.57;1.47;;;6.80;77.60;;;;;;5003230;28;20327;-74
2022/02/09 09:04:51;;;;;;;1.10;0.97;;;6.90;77.30;;;;;;5003570;28;20574;-75
2022/02/09 09:07:24;;;;;;;1.70;1.20;;;6.90;77.20;;;;;;5004197;28;20299;-75
2022/02/09 09:10:15;;;;;;;2.10;1.20;;;6.90;77.40;;;;;;5002316;28;20181;-74
2022/02/09 10:01:49;;;;;;;3.03;1.23;;;9.70;72.20;;;;;;5004870;28;20185;-75
2022/02/09 10:04:32;;;;;;;1.60;0.87;;;9.80;71.70;;;;;;5002322;28;20662;-75
2022/02/09 10:34:46;;;;;;;1.47;1.40;;;9.10;72.60;;;;;;4998488;28;20201;-75
2022/02/09 10:37:12;;;;;;;1.73;1.63;;;9.00;73.10;;;;;;4998698;28;20204;-74
2022/02/09 10:40:01;;;;;;;1.57;1.50;;;8.80;73.70;;;;;;5000199;28;20291;-77
2022/02/09 10:42:43;;;;;;;1.00;1.00;;;8.90;74.20;;;;;;5000404;28;20284;-77
2022/02/09 10:45:35;;;;;;;1.40;1.30;;;9.20;73.60;;;;;;4999878;28;20189;-74
2022/02/09 10:48:26;;;;;;;1.70;1.00;;;9.40;73.00;;;;;;4999719;28;20201;-75
2022/02/09 10:50:51;;;;;;;4.70;1.53;;;9.30;72.40;;;;;;4998001;28;20275;-75
2022/02/09 10:53:17;;;;;;;2.30;1.67;;;9.10;73.00;;;;;;4999335;28;20813;-75
2022/02/09 10:55:46;;;;;;;2.73;1.40;;;9.10;73.50;;;;;;5002365;28;20177;-75
2022/02/09 10:58:17;;;;;;;1.50;1.40;;;9.10;73.40;;;;;;5000834;28;20189;-75
2022/02/09 11:00:45;;;;;;;0.90;0.90;;;9.10;73.30;;;;;;4997981;28;20695;-75
2022/02/09 11:03:22;;;;;;;1.33;1.20;;;9.20;73.20;;;;;;5000431;28;20181;-75
2022/02/09 11:05:52;;;;;;;2.33;2.13;;;9.20;73.20;;;;;;5000240;28;20193;-75
2022/02/09 11:08:20;;;;;;;2.47;2.27;;;9.30;73.00;;;;;;5000103;28;20299;-75
2022/02/09 11:10:50;;;;;;;1.60;1.50;;;9.30;73.00;;;;;;4998408;28;20699;-74
2022/02/09 11:13:15;;;;;;;5.23;1.57;;;9.30;73.10;;;;;;5001822;28;20185;-74
2022/02/09 11:15:45;;;;;;;1.83;1.77;;;9.20;73.20;;;;;;5002778;28;20188;-76
2022/02/09 11:18:17;;;;;;;1.80;1.70;;;9.00;73.50;;;;;;5000697;28;20224;-75
2022/02/09 11:20:58;;;;;;;1.63;1.43;;;8.70;74.10;;;;;;4998713;28;20185;-74
2022/02/09 11:23:50;;;;;;;1.10;1.10;;;8.40;74.80;;;;;;5000096;28;20193;-75
2022/02/09 11:26:56;;;;;;;1.57;1.43;;;8.20;75.30;;;;;;4997460;28;20189;-75
2022/02/09 11:32:17;;;;;;;1.47;1.43;;;7.90;76.50;;;;;;4998696;28;20188;-75
2022/02/09 11:34:48;;;;;;;1.30;1.30;;;7.70;77.00;;;;;;4998950;28;20204;-75
2022/02/09 11:37:17;;;;;;;0.97;0.97;;;7.50;77.50;;;;;;5000098;28;20246;-74
2022/02/09 11:39:49;;;;;;;1.10;1.10;;;7.40;77.90;;;;;;5032993;28;20196;-74
2022/02/09 11:42:39;;;;;;;1.30;1.30;;;7.20;78.60;;;;;;5000310;28;20296;-75
2022/02/09 11:45:54;;;;;;;3.03;1.13;;;7.00;79.30;;;;;;5002186;28;20267;-74
2022/02/09 11:48:51;;;;;;;2.10;2.00;;;6.90;79.60;;;;;;4999745;28;20232;-75
2022/02/09 12:01:20;;;;;;;2.60;2.40;;;6.80;80.60;;;;;;5011536;28;20192;-75
2022/02/09 12:09:34;;;;;;;2.63;2.43;;;6.70;81.10;;;;;;5015179;28;20184;-75
2022/02/09 12:12:06;;;;;;;2.13;1.87;;;6.70;81.30;;;;;;5013316;28;20287;-75
2022/02/09 12:20:22;;;;;;;1.20;1.20;;;6.50;81.30;;;;;;5015103;28;20176;-75
2022/02/09 12:25:48;;;;;;;1.53;1.43;;;6.60;81.70;;;;;;5012805;28;20188;-75
2022/02/09 12:28:20;;;;;;;1.80;1.60;;;6.60;81.80;;;;;;5012819;28;20244;-75
2022/02/09 12:30:47;;;;;;;1.53;1.27;;;6.60;81.60;;;;;;5015763;28;20753;-75
2022/02/09 12:33:24;;;;;;;3.40;1.40;;;6.60;81.60;;;;;;5017804;28;20188;-75
2022/02/09 12:35:51;;;;;;;3.13;1.70;;;6.60;81.80;;;;;;5014667;28;20187;-75
2022/02/09 12:38:27;;;;;;;1.90;1.80;;;6.50;81.70;;;;;;5001102;28;20204;-75
2022/02/09 12:41:13;;;;;;;2.20;2.10;;;6.50;81.80;;;;;;5000665;28;20192;-75
2022/02/09 12:43:56;;;;;;;1.80;1.70;;;6.50;81.70;;;;;;4999643;28;20181;-75
2022/02/09 12:46:28;;;;;;;1.90;1.80;;;6.50;81.50;;;;;;5000413;28;20276;-74
2022/02/09 12:48:54;;;;;;;2.00;1.90;;;6.50;81.80;;;;;;4999928;28;20572;-74
2022/02/09 12:51:25;;;;;;;1.63;1.57;;;6.40;82.10;;;;;;5001048;28;20216;-75
2022/02/09 12:53:51;;;;;;;3.07;1.77;;;6.40;82.30;;;;;;4999864;28;20786;-75
2022/02/09 12:56:26;;;;;;;2.40;2.20;;;6.40;82.70;;;;;;4999983;28;20185;-75
2022/02/09 12:59:04;;;;;;;1.80;1.70;;;6.40;83.20;;;;;;4999278;28;20183;-74
2022/02/09 13:01:56;;;;;;;1.50;1.50;;;6.30;83.60;;;;;;4998729;28;20185;-75
2022/02/09 13:04:35;;;;;;;1.60;1.60;;;6.20;83.80;;;;;;4997827;28;20199;-75
2022/02/09 13:07:09;;;;;;;1.90;1.80;;;6.10;84.30;;;;;;4996739;28;20211;-74
2022/02/09 13:09:36;;;;;;;2.00;1.27;;;6.10;84.30;;;;;;4998501;28;20274;-75
2022/02/09 13:12:02;;;;;;;2.10;2.00;;;6.00;84.70;;;;;;4998948;28;20572;-74
2022/02/09 14:13:51;;;;;;;2.40;2.30;;;6.10;87.70;;;;;;4995687;28;20191;-73
2022/02/09 14:53:59;;;;;;;3.03;2.83;;;5.20;90.80;;;;;;5002810;28;20196;-75
2022/02/09 14:59:17;;;;;;;3.00;2.80;;;5.20;90.70;;;;;;4963577;28;20285;-76
2022/02/09 15:02:06;;;;;;;4.40;2.73;;;5.20;90.90;;;;;;4944704;28;20194;-75
2022/02/09 15:05:03;;;;;;;3.60;3.40;;;5.20;91.00;;;;;;4962524;28;20205;-75
2022/02/09 15:07:27;;;;;;;2.67;2.47;;;5.30;90.90;;;;;;4963143;28;20344;-75
2022/02/09 15:10:00;;;;;;;2.73;2.60;;;5.30;90.90;;;;;;4959882;28;20198;-75
2022/02/09 15:22:55;;;;;;;3.57;2.87;;;5.20;90.90;;;;;;4941869;28;20246;-75
2022/02/09 15:25:22;;;;;;;2.97;2.80;;;5.20;91.00;;;;;;4941621;28;20224;-76
2022/02/09 15:27:52;;;;;;;3.77;3.47;;;5.20;90.90;;;;;;4934902;29;20845;-76
2022/02/09 15:30:18;;;;;;;3.03;2.83;;;5.30;90.80;;;;;;4925336;29;20203;-75
2022/02/09 15:32:50;;;;;;;2.60;2.47;;;5.30;90.90;;;;;;4924728;29;21038;-76
2022/02/09 15:35:25;;;;;;;3.20;2.70;;;5.30;90.80;;;;;;4927294;28;20235;-76
2022/02/09 15:38:00;;;;;;;2.37;2.17;;;5.30;90.80;;;;;;4962703;28;20272;-76
2022/02/09 16:23:57;;;;;;;3.30;2.90;;;5.40;90.10;;;;;;5020938;28;20624;-75
2022/02/09 16:37:44;;;;;;;2.10;2.00;;;5.20;91.00;;;;;;5018910;28;20195;-75
2022/02/09 16:45:59;;;;;;;2.30;2.17;;;5.10;91.50;;;;;;5027458;28;20183;-76
2022/02/09 16:48:26;;;;;;;2.87;2.03;;;5.10;91.50;;;;;;5020569;28;20647;-77
2022/02/09 16:50:52;;;;;;;2.07;2.00;;;5.10;91.50;;;;;;5009729;28;20861;-75
2022/02/09 16:54:01;;;;;;;3.23;1.93;;;5.10;91.60;;;;;;5010030;28;20192;-75
2022/02/09 17:20:42;;;;;;;2.90;2.70;;;5.30;91.20;;;;;;5000420;28;20268;-77
2022/02/09 17:23:08;;;;;;;2.97;2.67;;;5.30;91.20;;;;;;5001509;28;20279;-77
2022/02/09 17:25:33;;;;;;;3.20;3.00;;;5.30;91.20;;;;;;5002807;28;20675;-76
2022/02/09 17:27:59;;;;;;;3.33;3.13;;;5.30;91.20;;;;;;4999225;28;20653;-75
2022/02/09 17:33:33;;;;;;;2.90;2.60;;;5.20;91.30;;;;;;5002019;28;20199;-75
2022/02/09 17:36:11;;;;;;;2.50;2.40;;;5.20;91.30;;;;;;5002830;28;20185;-75
2022/02/09 17:57:22;;;;;;;2.60;2.50;;;5.10;91.40;;;;;;5002490;28;20560;-77
2022/02/09 18:00:07;;;;;;;4.07;3.67;;;5.10;91.20;;;;;;5001275;28;20184;-77
2022/02/09 18:02:34;;;;;;;3.37;3.13;;;5.20;91.00;;;;;;5003948;28;20177;-75
2022/02/09 18:05:01;;;;;;;2.70;2.53;;;5.20;91.00;;;;;;5001808;28;20712;-75
2022/02/09 18:07:30;;;;;;;3.27;3.17;;;5.20;90.90;;;;;;5002780;28;20217;-75
2022/02/09 18:10:05;;;;;;;5.87;3.33;;;5.20;90.90;;;;;;5006619;28;20173;-77
2022/02/09 18:12:51;;;;;;;2.63;2.53;;;5.20;90.70;;;;;;5007758;28;20713;-77
2022/02/09 18:15:53;;;;;;;2.53;2.37;;;5.20;90.70;;;;;;5008013;28;20635;-75
2022/02/09 18:26:52;;;;;;;3.53;3.33;;;5.20;90.60;;;;;;5006353;28;20199;-76
2022/02/09 19:03:53;;;;;;;4.00;3.30;;;5.00;90.80;;;;;;4977972;28;20174;-71
2022/02/09 19:06:26;;;;;;;2.70;2.60;;;4.90;91.00;;;;;;4966725;28;20286;-72
2022/02/09 19:14:04;;;;;;;3.17;2.97;;;4.90;91.10;;;;;;4965130;28;21056;-74
2022/02/09 19:17:03;;;;;;;3.67;3.13;;;4.90;91.00;;;;;;4961902;28;20190;-73
2022/02/09 19:19:38;;;;;;;3.23;3.03;;;4.90;90.90;;;;;;4961163;28;20194;-73
2022/02/09 19:46:30;;;;;;;3.33;2.57;;;5.00;89.00;;;;;;5001472;28;20264;-75
2022/02/09 19:51:43;;;;;;;2.40;2.30;;;5.10;88.70;;;;;;4998802;28;20236;-75
2022/02/09 19:54:27;;;;;;;2.30;2.17;;;5.10;88.60;;;;;;4999095;28;20185;-75
2022/02/09 19:57:00;;;;;;;3.50;3.20;;;5.10;88.30;;;;;;5003094;28;20568;-75
2022/02/09 19:59:26;;;;;;;2.53;2.33;;;5.10;88.30;;;;;;5001753;28;20181;-74
2022/02/09 20:01:54;;;;;;;3.33;3.03;;;5.20;88.00;;;;;;5001944;28;20189;-74
2022/02/09 20:04:20;;;;;;;2.70;2.57;;;5.20;87.80;;;;;;4999918;28;20275;-74
2022/02/09 20:06:46;;;;;;;2.40;2.30;;;5.20;87.70;;;;;;5002903;28;20205;-74
2022/02/09 20:09:12;;;;;;;2.30;2.13;;;5.20;87.70;;;;;;5002735;28;20247;-74
2022/02/09 20:11:42;;;;;;;2.37;2.17;;;5.20;87.60;;;;;;5002658;28;20189;-75
2022/02/09 20:14:11;;;;;;;2.67;2.57;;;5.30;87.50;;;;;;5001909;28;20686;-74
2022/02/09 20:16:37;;;;;;;2.80;2.60;;;5.30;87.40;;;;;;5003070;28;20262;-74
2022/02/09 20:19:03;;;;;;;2.40;2.30;;;5.30;87.30;;;;;;5002625;28;20211;-74
2022/02/09 20:21:29;;;;;;;2.87;2.67;;;5.40;87.10;;;;;;5003271;28;20181;-74
2022/02/09 20:23:56;;;;;;;2.50;2.27;;;5.40;87.00;;;;;;5001150;28;20193;-74
2022/02/09 20:26:23;;;;;;;3.10;2.67;;;5.40;86.90;;;;;;5000867;28;20200;-75
2022/02/09 20:28:57;;;;;;;3.43;2.87;;;5.40;87.00;;;;;;5002025;28;20260;-74
2022/02/09 20:31:29;;;;;;;3.53;2.67;;;5.40;86.90;;;;;;5001355;28;20300;-74
2022/02/09 20:34:04;;;;;;;2.67;2.57;;;5.40;86.90;;;;;;5002680;28;20180;-75
2022/02/09 20:36:31;;;;;;;2.10;2.07;;;5.40;86.90;;;;;;5003394;28;20243;-75
2022/02/09 20:39:00;;;;;;;2.20;2.10;;;5.50;86.90;;;;;;5002027;28;20184;-75
2022/02/09 20:41:26;;;;;;;2.47;2.37;;;5.40;86.90;;;;;;5000654;28;20200;-74
2022/02/09 20:44:16;;;;;;;2.50;2.37;;;5.50;86.90;;;;;;5003250;28;20272;-74
2022/02/09 20:46:42;;;;;;;3.40;3.10;;;5.40;86.90;;;;;;5000754;28;20193;-77
2022/02/09 20:49:08;;;;;;;3.33;2.97;;;5.50;86.90;;;;;;5004531;28;20250;-77
2022/02/09 20:51:34;;;;;;;3.33;2.93;;;5.50;86.70;;;;;;5002228;28;20359;-76
2022/02/09 20:53:59;;;;;;;3.60;2.53;;;5.50;86.70;;;;;;4999810;28;20618;-78
2022/02/09 20:56:25;;;;;;;3.00;2.73;;;5.50;86.70;;;;;;4998863;28;20271;-73
2022/02/09 20:58:57;;;;;;;2.80;2.67;;;5.50;86.70;;;;;;5000460;28;20181;-74
2022/02/09 21:01:30;;;;;;;3.10;3.00;;;5.50;86.60;;;;;;4998764;28;20747;-72
2022/02/09 21:04:02;;;;;;;2.50;2.40;;;5.50;86.50;;;;;;5002003;28;20172;-72
2022/02/09 21:09:23;;;;;;;3.00;2.80;;;5.50;86.40;;;;;;5002479;28;20188;-73
2022/02/09 21:12:07;;;;;;;3.10;2.90;;;5.50;86.40;;;;;;4999369;28;20184;-72
2022/02/09 21:50:12;;;;;;;3.10;2.83;;;5.10;87.10;;;;;;4999178;28;20247;-73
2022/02/09 21:54:58;;;;;;;2.70;2.60;;;5.00;87.50;;;;;;4999715;28;20263;-73
2022/02/09 22:00:35;;;;;;;3.07;2.87;;;5.00;87.60;;;;;;5000301;28;20768;-73
2022/02/09 22:16:53;;;;;;;2.10;2.00;;;4.90;87.50;;;;;;5001388;28;20188;-72
2022/02/09 22:26:02;;;;;;;3.00;2.90;;;4.80;87.20;;;;;;5017192;28;20846;-72
2022/02/09 22:56:48;;;;;;;6.40;3.10;;;4.40;89.80;;;;;;5023229;28;20265;-71
2022/02/09 22:59:23;;;;;;;3.53;3.23;;;4.40;89.50;;;;;;5007317;28;20181;-71
2022/02/09 23:01:53;;;;;;;4.90;2.77;;;4.40;89.50;;;;;;5004786;28;20222;-72
2022/02/09 23:04:36;;;;;;;4.87;2.70;;;4.40;89.40;;;;;;5006554;28;20185;-72
2022/02/09 23:07:13;;;;;;;3.37;3.07;;;4.40;89.40;;;;;;5006208;28;20201;-72
2022/02/09 23:10:06;;;;;;;3.10;2.90;;;4.40;89.60;;;;;;5005547;28;20188;-72
2022/02/09 23:12:51;;;;;;;2.87;2.70;;;4.40;89.60;;;;;;5005903;28;20181;-72
2022/02/09 23:23:47;;;;;;;3.00;2.80;;;4.20;89.20;;;;;;5005916;28;20646;-73
2022/02/09 23:56:34;;;;;;;5.30;4.60;;;3.60;90.10;;;;;;4999311;28;20244;-73
